Larvik — C6VC2 — position and weather

sailwx.info

Track history (hours):
 
Tides and Currents Weather Stations Pressure Air Temp Water Temp Dewpoint Dewpoint Depression Visibility Wind Speed Wind Dir Waves Ship Positions

Larvik

Last reported at 2018-Jun-11 23:42 UTC. Time now 2018-Jun-24 14:20 UTC.
Position N 29°10' W 094°29'.
Warning: this ship's position is 12 days out of date.

Length 214 m; draft 10.2 m.

Type: Ship (hazmat cat D). MMSI: 308371000.

Date/timePositionNaut miles runAvg speedWind from/ knotsBaromVisibWave heightAir tempDewpointWater temp
2018-Jun-11 23:42N 29°10' W 094°29'512.0
2018-Jun-11 23:18N 29°14' W 094°33'411.8
2018-Jun-11 23:00N 29°16' W 094°36'610.6
2018-Jun-11 22:27N 29°20' W 094°41'612.1
2018-Jun-11 21:59N 29°21' W 094°47'511.4
2018-Jun-11 21:31N 29°26' W 094°50'510.9
2018-Jun-11 21:00N 29°31' W 094°53'510.4
2018-Jun-11 20:30N 29°35' W 094°56'510.1
2018-Jun-11 20:01N 29°40' W 094°58'4 7.9
2018-Jun-11 19:30N 29°43' W 095°01'5 0.1
2018-Jun-09 23:16N 29°45' W 095°06'1 1.5
2018-Jun-09 22:46N 29°45' W 095°06'2 6.2
2018-Jun-09 22:23N 29°44' W 095°03'3 7.7
2018-Jun-09 22:00N 29°42' W 095°01'4 8.5
2018-Jun-09 21:30N 29°39' W 094°58'510.5
2018-Jun-09 21:00N 29°34' W 094°55'26 1.6
2018-Jun-09 04:36N 29°13' W 094°37'0 0.0
2018-Jun-09 03:42N 29°13' W 094°37'0 0.0
2018-Jun-09 03:15N 29°13' W 094°37'0 0.0
2018-Jun-09 02:15N 29°13' W 094°37'0 0.0
2018-Jun-08 14:33N 29°13' W 094°37'0 0.2
2018-Jun-08 14:30N 29°13' W 094°37'0 0.0
2018-Jun-08 14:00N 29°13' W 094°37'0 0.0
2018-Jun-08 13:30N 29°13' W 094°37'0 0.0
2018-Jun-08 12:57N 29°13' W 094°37'0 0.0
2018-Jun-08 12:27N 29°13' W 094°37'0 0.0
2018-Jun-08 12:00N 29°13' W 094°37'0 0.0
2018-Jun-08 11:27N 29°13' W 094°37'0 0.0
2018-Jun-08 11:00N 29°13' W 094°37'0 0.0
2018-Jun-08 10:30N 29°13' W 094°37'0 0.0
2018-Jun-08 09:57N 29°13' W 094°37'0 0.0
2018-Jun-08 09:30N 29°13' W 094°37'0 0.0
2018-Jun-08 09:00N 29°13' W 094°37'0 0.0
2018-Jun-08 08:30N 29°13' W 094°37'0 0.0
2018-Jun-08 08:00N 29°13' W 094°37'0 0.0
2018-Jun-08 07:00N 29°13' W 094°37'0 0.0
2018-Jun-08 06:27N 29°13' W 094°37'0 0.0
2018-Jun-08 06:00N 29°13' W 094°37'0 0.0
2018-Jun-08 05:30N 29°13' W 094°37'0 0.0
2018-Jun-08 05:00N 29°13' W 094°37'0 0.0
2018-Jun-08 04:27N 29°13' W 094°37'0 0.0
2018-Jun-08 04:00N 29°13' W 094°37'0 0.0
2018-Jun-08 03:30N 29°13' W 094°37'0 0.0
2018-Jun-08 03:00N 29°13' W 094°37'0 0.0
2018-Jun-08 02:30N 29°13' W 094°37'0 0.0
2018-Jun-08 02:00N 29°13' W 094°37'0 0.0
2018-Jun-08 01:30N 29°13' W 094°37'0 0.0
2018-Jun-08 01:00N 29°13' W 094°37'0 0.0
2018-Jun-08 00:30N 29°13' W 094°37'0 0.0
2018-Jun-08 00:00N 29°13' W 094°37'0 0.0
2018-Jun-07 23:27N 29°13' W 094°37'0 0.0
2018-Jun-07 23:00N 29°13' W 094°37'0 0.0
2018-Jun-07 22:30N 29°13' W 094°37'0 0.0
2018-Jun-07 22:00N 29°13' W 094°37'0 0.0
2018-Jun-07 21:30N 29°13' W 094°37'0 0.0
2018-Jun-07 21:00N 29°13' W 094°37'0 0.0
2018-Jun-07 20:30N 29°13' W 094°37'0 0.0
2018-Jun-07 19:51N 29°13' W 094°37'0 0.0
2018-Jun-07 19:30N 29°13' W 094°37'0 0.0
2018-Jun-07 19:00N 29°13' W 094°37'0 0.0
2018-Jun-07 18:30N 29°13' W 094°37'0 0.0
2018-Jun-07 18:00N 29°13' W 094°37'0 0.0
2018-Jun-07 17:30N 29°13' W 094°37'0 0.0
2018-Jun-07 16:57N 29°13' W 094°37'0 0.0
2018-Jun-07 16:30N 29°13' W 094°37'0 0.0
2018-Jun-07 16:00N 29°13' W 094°37'0 0.0
2018-Jun-07 15:30N 29°13' W 094°37'0 0.0
2018-Jun-07 15:00N 29°13' W 094°37'0 0.0
2018-Jun-07 14:30N 29°13' W 094°37'0 0.0
2018-Jun-07 14:00N 29°13' W 094°37'0 0.0
2018-Jun-07 13:30N 29°13' W 094°37'0 0.0
2018-Jun-07 12:54N 29°13' W 094°37'0 0.1
2018-Jun-07 12:30N 29°13' W 094°37'0 0.5
2018-Jun-07 11:59N 29°13' W 094°37'3 5.4
2018-Jun-07 11:30N 29°10' W 094°36'510.9
2018-Jun-07 11:01N 29°06' W 094°32'  
Track history (hours):
 
Tides and Currents Weather Stations Pressure Air Temp Water Temp Dewpoint Dewpoint Depression Visibility Wind Speed Wind Dir Waves Ship Positions

Larvik

Last reported at 2018-Jun-11 23:42 UTC. Time now 2018-Jun-24 14:20 UTC.
Position N 29°10' W 094°29'.
Warning: this ship's position is 12 days out of date.

Length 214 m; draft 10.2 m.

Type: Ship (hazmat cat D). MMSI: 308371000.

Date/timePositionNaut miles runAvg speedWind from/ knotsBaromVisibWave heightAir tempDewpointWater temp
2018-Jun-11 23:42N 29°10' W 094°29'512.0
2018-Jun-11 23:18N 29°14' W 094°33'411.8
2018-Jun-11 23:00N 29°16' W 094°36'610.6
2018-Jun-11 22:27N 29°20' W 094°41'612.1
2018-Jun-11 21:59N 29°21' W 094°47'511.4
2018-Jun-11 21:31N 29°26' W 094°50'510.9
2018-Jun-11 21:00N 29°31' W 094°53'510.4
2018-Jun-11 20:30N 29°35' W 094°56'510.1
2018-Jun-11 20:01N 29°40' W 094°58'4 7.9
2018-Jun-11 19:30N 29°43' W 095°01'5 0.1
2018-Jun-09 23:16N 29°45' W 095°06'1 1.5
2018-Jun-09 22:46N 29°45' W 095°06'2 6.2
2018-Jun-09 22:23N 29°44' W 095°03'3 7.7
2018-Jun-09 22:00N 29°42' W 095°01'4 8.5
2018-Jun-09 21:30N 29°39' W 094°58'510.5
2018-Jun-09 21:00N 29°34' W 094°55'26 1.6
2018-Jun-09 04:36N 29°13' W 094°37'0 0.0
2018-Jun-09 03:42N 29°13' W 094°37'0 0.0
2018-Jun-09 03:15N 29°13' W 094°37'0 0.0
2018-Jun-09 02:15N 29°13' W 094°37'0 0.0
2018-Jun-08 14:33N 29°13' W 094°37'0 0.2
2018-Jun-08 14:30N 29°13' W 094°37'0 0.0
2018-Jun-08 14:00N 29°13' W 094°37'0 0.0
2018-Jun-08 13:30N 29°13' W 094°37'0 0.0
2018-Jun-08 12:57N 29°13' W 094°37'0 0.0
2018-Jun-08 12:27N 29°13' W 094°37'0 0.0
2018-Jun-08 12:00N 29°13' W 094°37'0 0.0
2018-Jun-08 11:27N 29°13' W 094°37'0 0.0
2018-Jun-08 11:00N 29°13' W 094°37'0 0.0
2018-Jun-08 10:30N 29°13' W 094°37'0 0.0
2018-Jun-08 09:57N 29°13' W 094°37'0 0.0
2018-Jun-08 09:30N 29°13' W 094°37'0 0.0
2018-Jun-08 09:00N 29°13' W 094°37'0 0.0
2018-Jun-08 08:30N 29°13' W 094°37'0 0.0
2018-Jun-08 08:00N 29°13' W 094°37'0 0.0
2018-Jun-08 07:00N 29°13' W 094°37'0 0.0
2018-Jun-08 06:27N 29°13' W 094°37'0 0.0
2018-Jun-08 06:00N 29°13' W 094°37'0 0.0
2018-Jun-08 05:30N 29°13' W 094°37'0 0.0
2018-Jun-08 05:00N 29°13' W 094°37'0 0.0
2018-Jun-08 04:27N 29°13' W 094°37'0 0.0
2018-Jun-08 04:00N 29°13' W 094°37'0 0.0
2018-Jun-08 03:30N 29°13' W 094°37'0 0.0
2018-Jun-08 03:00N 29°13' W 094°37'0 0.0
2018-Jun-08 02:30N 29°13' W 094°37'0 0.0
2018-Jun-08 02:00N 29°13' W 094°37'0 0.0
2018-Jun-08 01:30N 29°13' W 094°37'0 0.0
2018-Jun-08 01:00N 29°13' W 094°37'0 0.0
2018-Jun-08 00:30N 29°13' W 094°37'0 0.0
2018-Jun-08 00:00N 29°13' W 094°37'0 0.0
2018-Jun-07 23:27N 29°13' W 094°37'0 0.0
2018-Jun-07 23:00N 29°13' W 094°37'0 0.0
2018-Jun-07 22:30N 29°13' W 094°37'0 0.0
2018-Jun-07 22:00N 29°13' W 094°37'0 0.0
2018-Jun-07 21:30N 29°13' W 094°37'0 0.0
2018-Jun-07 21:00N 29°13' W 094°37'0 0.0
2018-Jun-07 20:30N 29°13' W 094°37'0 0.0
2018-Jun-07 19:51N 29°13' W 094°37'0 0.0
2018-Jun-07 19:30N 29°13' W 094°37'0 0.0
2018-Jun-07 19:00N 29°13' W 094°37'0 0.0
2018-Jun-07 18:30N 29°13' W 094°37'0 0.0
2018-Jun-07 18:00N 29°13' W 094°37'0 0.0
2018-Jun-07 17:30N 29°13' W 094°37'0 0.0
2018-Jun-07 16:57N 29°13' W 094°37'0 0.0
2018-Jun-07 16:30N 29°13' W 094°37'0 0.0
2018-Jun-07 16:00N 29°13' W 094°37'0 0.0
2018-Jun-07 15:30N 29°13' W 094°37'0 0.0
2018-Jun-07 15:00N 29°13' W 094°37'0 0.0
2018-Jun-07 14:30N 29°13' W 094°37'0 0.0
2018-Jun-07 14:00N 29°13' W 094°37'0 0.0
2018-Jun-07 13:30N 29°13' W 094°37'0 0.0
2018-Jun-07 12:54N 29°13' W 094°37'0 0.1
2018-Jun-07 12:30N 29°13' W 094°37'0 0.5
2018-Jun-07 11:59N 29°13' W 094°37'3 5.4
2018-Jun-07 11:30N 29°10' W 094°36'510.9
2018-Jun-07 11:01N 29°06' W 094°32'  

Dump ship's entire track history